Hattiesburg, MS (39401)

7:11 AM CDT on August 05, 2015 (GMT -0500)
Woodhaven | | Change Station
CLOSE
Current Station
Personal Weather Station
Location: Hattiesburg, MS
Elevation: 374 ft
Nearby Weather Stations

Elev 374 ft 31.28 °N, 89.35 °W | Updated 13 seconds ago

Overcast
Overcast
77.2 °F
Feels Like 78 °F
N
0.0
Wind Variable Wind from WSW
Gusts 0.0 mph

Today
High -- | Low -- °F
--% Chance of Precip.
Yesterday
High -- | Low -- °F
Precip. -- in
6:16 AM 7:49 PM
Waning Gibbous, 68% visible
Pressure 30.01 in
Visibility 10.0 miles
Clouds Overcast 900 ft
Heat Index 78 °F
Dew Point 75 °F
Humidity 94%
Rainfall 0.00 in
Snow Depth Not available.
UV 1.0 out of 12
Pollen 2.70 out of 12
Air Quality Not available.
Flu Activity Not available.
METAR KHBG 051153Z AUTO 00000KT 10SM OVC009 26/23 A3002 RMK AO2 SLP160 T02560233 10256 20239 53006

More Conditions Fewer Conditions

Pressure 30.01 in
Visibility 10.0 miles
Clouds Overcast 900 ft
Heat Index 78 °F
Dew Point 75 °F
Humidity 94%
Rainfall 0.00 in
Snow Depth Not available.
UV 1.0 out of 12
Pollen 2.70 out of 12
Air Quality Not available.
Flu Activity Not available.
METAR KHBG 051153Z AUTO 00000KT 10SM OVC009 26/23 A3002 RMK AO2 SLP160 T02560233 10256 20239 53006

More Conditions Fewer Conditions

10-Day Weather Forecast

×

Almanac

Astronomy

Aug. 05, 2015 Rise Set
Actual Time
Civil Twilight
Nautical Twilight
Astronomical Twilight
Moon
Length of Visible Light
Length of Day
Tomorrow will be .
, % of the Moon is Illuminated

Today's Extremes

State Highs State Lows

Community

WunderPhotos

Upload Photos

1,844,169 photos uploaded!

WunderBlogs® & News

Nearby

Air Quality

  Air Quality AQ Index Pollutant
Not available.

Snow Depth

Station Depth Elevation

Earthquake Activity

City Distance Mag. Time & Date
Minimum magnitude displayed is 2.5.

Coastal Water Temperatures

Place Temperature

Stations

Nearby Weather Stations

Station Location Temp. Windchill Dew Point Humidity Wind Precip. Elev Updated Type